sensor_id;sensor_type;location;lat;lon;timestamp;P1;durP1;ratioP1;P2;durP2;ratioP2
58689;SDS011;44470;53.206;-6.106;2023-02-26T00:01:19;2.63;;;1.35;;
58689;SDS011;44470;53.206;-6.106;2023-02-26T00:03:50;2.25;;;1.02;;
58689;SDS011;44470;53.206;-6.106;2023-02-26T00:06:16;2.80;;;1.20;;
58689;SDS011;44470;53.206;-6.106;2023-02-26T00:08:42;2.78;;;1.15;;
58689;SDS011;44470;53.206;-6.106;2023-02-26T00:11:08;3.00;;;1.00;;
58689;SDS011;44470;53.206;-6.106;2023-02-26T00:13:35;1.92;;;1.08;;
58689;SDS011;44470;53.206;-6.106;2023-02-26T00:16:02;3.25;;;1.33;;
58689;SDS011;44470;53.206;-6.106;2023-02-26T00:18:27;2.03;;;1.02;;
58689;SDS011;44470;53.206;-6.106;2023-02-26T00:20:54;1.92;;;1.15;;
58689;SDS011;44470;53.206;-6.106;2023-02-26T00:23:20;3.83;;;1.30;;
58689;SDS011;44470;53.206;-6.106;2023-02-26T00:25:46;1.52;;;1.17;;
58689;SDS011;44470;53.206;-6.106;2023-02-26T00:28:11;2.17;;;1.25;;
58689;SDS011;44470;53.206;-6.106;2023-02-26T00:30:38;2.10;;;1.10;;
58689;SDS011;44470;53.206;-6.106;2023-02-26T00:33:04;2.58;;;1.02;;
58689;SDS011;44470;53.206;-6.106;2023-02-26T00:35:30;1.42;;;0.90;;
58689;SDS011;44470;53.206;-6.106;2023-02-26T00:38:08;1.45;;;0.90;;
58689;SDS011;44470;53.206;-6.106;2023-02-26T00:40:46;2.38;;;1.05;;
58689;SDS011;44470;53.206;-6.106;2023-02-26T00:43:17;1.90;;;1.20;;
58689;SDS011;44470;53.206;-6.106;2023-02-26T00:56:34;2.35;;;1.38;;
58689;SDS011;44470;53.206;-6.106;2023-02-26T00:58:59;3.03;;;1.45;;
58689;SDS011;44470;53.206;-6.106;2023-02-26T01:01:27;2.08;;;1.15;;
58689;SDS011;44470;53.206;-6.106;2023-02-26T01:03:54;2.47;;;1.00;;
58689;SDS011;44470;53.206;-6.106;2023-02-26T01:06:20;2.00;;;1.02;;
58689;SDS011;44470;53.206;-6.106;2023-02-26T01:11:30;0.70;;;0.65;;
58689;SDS011;44470;53.206;-6.106;2023-02-26T01:13:58;2.05;;;1.10;;
58689;SDS011;44470;53.206;-6.106;2023-02-26T01:16:25;1.50;;;0.80;;
58689;SDS011;44470;53.206;-6.106;2023-02-26T01:18:58;2.53;;;1.00;;
58689;SDS011;44470;53.206;-6.106;2023-02-26T01:21:46;1.45;;;0.75;;
58689;SDS011;44470;53.206;-6.106;2023-02-26T01:24:16;1.10;;;0.77;;
58689;SDS011;44470;53.206;-6.106;2023-02-26T01:26:46;2.88;;;1.00;;
58689;SDS011;44470;53.206;-6.106;2023-02-26T01:29:14;1.02;;;0.88;;
58689;SDS011;44470;53.206;-6.106;2023-02-26T01:31:53;1.70;;;0.57;;
58689;SDS011;44470;53.206;-6.106;2023-02-26T01:34:33;1.13;;;0.70;;
58689;SDS011;44470;53.206;-6.106;2023-02-26T01:37:07;1.65;;;1.10;;
58689;SDS011;44470;53.206;-6.106;2023-02-26T01:39:46;2.05;;;0.75;;
58689;SDS011;44470;53.206;-6.106;2023-02-26T01:42:17;1.15;;;0.55;;
58689;SDS011;44470;53.206;-6.106;2023-02-26T01:50:13;1.40;;;0.68;;
58689;SDS011;44470;53.206;-6.106;2023-02-26T01:55:20;2.17;;;0.75;;
58689;SDS011;44470;53.206;-6.106;2023-02-26T01:57:48;1.13;;;0.82;;
58689;SDS011;44470;53.206;-6.106;2023-02-26T02:00:16;1.05;;;0.55;;
58689;SDS011;44470;53.206;-6.106;2023-02-26T02:02:42;1.42;;;0.82;;
58689;SDS011;44470;53.206;-6.106;2023-02-26T02:05:23;0.80;;;0.77;;
58689;SDS011;44470;53.206;-6.106;2023-02-26T02:07:57;1.40;;;0.80;;
58689;SDS011;44470;53.206;-6.106;2023-02-26T02:10:24;1.63;;;0.75;;
58689;SDS011;44470;53.206;-6.106;2023-02-26T02:24:34;1.00;;;0.65;;
58689;SDS011;44470;53.206;-6.106;2023-02-26T02:32:43;1.83;;;0.50;;
58689;SDS011;44470;53.206;-6.106;2023-02-26T02:35:16;1.30;;;0.80;;
58689;SDS011;44470;53.206;-6.106;2023-02-26T02:37:55;1.08;;;0.70;;
58689;SDS011;44470;53.206;-6.106;2023-02-26T02:40:33;0.70;;;0.70;;
58689;SDS011;44470;53.206;-6.106;2023-02-26T02:43:21;0.82;;;0.50;;
58689;SDS011;44470;53.206;-6.106;2023-02-26T02:48:22;1.50;;;0.75;;
58689;SDS011;44470;53.206;-6.106;2023-02-26T02:50:52;1.73;;;0.88;;
58689;SDS011;44470;53.206;-6.106;2023-02-26T02:53:23;2.40;;;0.65;;
58689;SDS011;44470;53.206;-6.106;2023-02-26T02:56:23;2.28;;;0.85;;
58689;SDS011;44470;53.206;-6.106;2023-02-26T02:59:00;1.38;;;0.60;;
58689;SDS011;44470;53.206;-6.106;2023-02-26T03:01:33;0.90;;;0.52;;
58689;SDS011;44470;53.206;-6.106;2023-02-26T03:04:02;1.55;;;0.82;;
58689;SDS011;44470;53.206;-6.106;2023-02-26T03:06:32;4.00;;;0.80;;
58689;SDS011;44470;53.206;-6.106;2023-02-26T03:08:58;0.68;;;0.60;;
58689;SDS011;44470;53.206;-6.106;2023-02-26T03:11:25;0.60;;;0.47;;
58689;SDS011;44470;53.206;-6.106;2023-02-26T03:13:51;1.20;;;0.65;;
58689;SDS011;44470;53.206;-6.106;2023-02-26T03:23:00;0.93;;;0.70;;
58689;SDS011;44470;53.206;-6.106;2023-02-26T03:30:55;1.60;;;0.45;;
58689;SDS011;44470;53.206;-6.106;2023-02-26T03:33:28;2.10;;;0.60;;
58689;SDS011;44470;53.206;-6.106;2023-02-26T03:36:10;2.05;;;0.73;;
58689;SDS011;44470;53.206;-6.106;2023-02-26T03:38:53;0.70;;;0.43;;
58689;SDS011;44470;53.206;-6.106;2023-02-26T03:41:43;0.65;;;0.60;;
58689;SDS011;44470;53.206;-6.106;2023-02-26T03:44:19;1.65;;;0.60;;
58689;SDS011;44470;53.206;-6.106;2023-02-26T03:46:53;1.08;;;0.63;;
58689;SDS011;44470;53.206;-6.106;2023-02-26T03:49:25;0.95;;;0.52;;
58689;SDS011;44470;53.206;-6.106;2023-02-26T03:51:55;2.63;;;1.00;;
58689;SDS011;44470;53.206;-6.106;2023-02-26T03:54:41;0.65;;;0.50;;
58689;SDS011;44470;53.206;-6.106;2023-02-26T03:57:34;1.13;;;0.68;;
58689;SDS011;44470;53.206;-6.106;2023-02-26T04:00:15;0.98;;;0.70;;
58689;SDS011;44470;53.206;-6.106;2023-02-26T04:02:53;0.68;;;0.45;;
58689;SDS011;44470;53.206;-6.106;2023-02-26T04:05:44;0.77;;;0.40;;
58689;SDS011;44470;53.206;-6.106;2023-02-26T04:08:13;0.73;;;0.43;;
58689;SDS011;44470;53.206;-6.106;2023-02-26T04:10:40;0.95;;;0.60;;
58689;SDS011;44470;53.206;-6.106;2023-02-26T04:13:09;0.95;;;0.30;;
58689;SDS011;44470;53.206;-6.106;2023-02-26T04:15:35;0.80;;;0.40;;
58689;SDS011;44470;53.206;-6.106;2023-02-26T04:18:01;0.80;;;0.47;;
58689;SDS011;44470;53.206;-6.106;2023-02-26T04:20:27;0.82;;;0.50;;
58689;SDS011;44470;53.206;-6.106;2023-02-26T04:22:53;2.00;;;0.47;;
58689;SDS011;44470;53.206;-6.106;2023-02-26T04:25:21;0.95;;;0.52;;
58689;SDS011;44470;53.206;-6.106;2023-02-26T04:27:47;1.17;;;0.55;;
58689;SDS011;44470;53.206;-6.106;2023-02-26T04:30:13;1.02;;;0.63;;
58689;SDS011;44470;53.206;-6.106;2023-02-26T04:32:38;1.20;;;0.65;;
58689;SDS011;44470;53.206;-6.106;2023-02-26T04:35:05;1.42;;;0.77;;
58689;SDS011;44470;53.206;-6.106;2023-02-26T04:37:31;1.60;;;0.60;;
58689;SDS011;44470;53.206;-6.106;2023-02-26T04:39:57;0.68;;;0.52;;
58689;SDS011;44470;53.206;-6.106;2023-02-26T04:42:22;0.57;;;0.32;;
58689;SDS011;44470;53.206;-6.106;2023-02-26T04:44:48;1.95;;;0.57;;
58689;SDS011;44470;53.206;-6.106;2023-02-26T04:47:13;1.48;;;0.60;;
58689;SDS011;44470;53.206;-6.106;2023-02-26T04:49:40;0.40;;;0.40;;
58689;SDS011;44470;53.206;-6.106;2023-02-26T04:52:05;1.10;;;0.45;;
58689;SDS011;44470;53.206;-6.106;2023-02-26T04:54:32;1.13;;;0.73;;
58689;SDS011;44470;53.206;-6.106;2023-02-26T04:56:57;0.47;;;0.38;;
58689;SDS011;44470;53.206;-6.106;2023-02-26T04:59:23;0.75;;;0.40;;
58689;SDS011;44470;53.206;-6.106;2023-02-26T05:01:49;0.77;;;0.40;;
58689;SDS011;44470;53.206;-6.106;2023-02-26T05:04:14;0.60;;;0.50;;
58689;SDS011;44470;53.206;-6.106;2023-02-26T05:09:11;0.82;;;0.40;;
58689;SDS011;44470;53.206;-6.106;2023-02-26T05:11:37;1.42;;;0.40;;
58689;SDS011;44470;53.206;-6.106;2023-02-26T05:14:04;0.90;;;0.52;;
58689;SDS011;44470;53.206;-6.106;2023-02-26T05:16:30;1.00;;;0.45;;
58689;SDS011;44470;53.206;-6.106;2023-02-26T05:18:55;1.05;;;0.65;;
58689;SDS011;44470;53.206;-6.106;2023-02-26T05:21:21;0.95;;;0.65;;
58689;SDS011;44470;53.206;-6.106;2023-02-26T05:23:47;0.75;;;0.40;;
58689;SDS011;44470;53.206;-6.106;2023-02-26T05:26:12;1.13;;;0.60;;
58689;SDS011;44470;53.206;-6.106;2023-02-26T05:28:39;0.60;;;0.35;;
58689;SDS011;44470;53.206;-6.106;2023-02-26T05:31:05;1.27;;;0.50;;
58689;SDS011;44470;53.206;-6.106;2023-02-26T05:33:30;0.82;;;0.40;;
58689;SDS011;44470;53.206;-6.106;2023-02-26T05:35:56;0.50;;;0.32;;
58689;SDS011;44470;53.206;-6.106;2023-02-26T05:38:22;0.57;;;0.50;;
58689;SDS011;44470;53.206;-6.106;2023-02-26T05:40:48;0.95;;;0.40;;
58689;SDS011;44470;53.206;-6.106;2023-02-26T05:43:13;0.50;;;0.43;;
58689;SDS011;44470;53.206;-6.106;2023-02-26T05:45:39;0.52;;;0.50;;
58689;SDS011;44470;53.206;-6.106;2023-02-26T05:48:04;0.98;;;0.50;;
58689;SDS011;44470;53.206;-6.106;2023-02-26T05:50:30;1.17;;;0.50;;
58689;SDS011;44470;53.206;-6.106;2023-02-26T05:52:56;2.20;;;0.73;;
58689;SDS011;44470;53.206;-6.106;2023-02-26T05:55:21;0.22;;;0.20;;
58689;SDS011;44470;53.206;-6.106;2023-02-26T05:57:47;0.80;;;0.60;;
58689;SDS011;44470;53.206;-6.106;2023-02-26T06:00:13;0.60;;;0.22;;
58689;SDS011;44470;53.206;-6.106;2023-02-26T06:02:39;0.20;;;0.20;;
58689;SDS011;44470;53.206;-6.106;2023-02-26T06:05:05;1.20;;;0.35;;
58689;SDS011;44470;53.206;-6.106;2023-02-26T06:07:32;0.73;;;0.70;;
58689;SDS011;44470;53.206;-6.106;2023-02-26T06:09:57;1.98;;;0.70;;
58689;SDS011;44470;53.206;-6.106;2023-02-26T06:12:22;0.70;;;0.47;;
58689;SDS011;44470;53.206;-6.106;2023-02-26T06:14:48;0.65;;;0.30;;
58689;SDS011;44470;53.206;-6.106;2023-02-26T06:17:13;0.60;;;0.30;;
58689;SDS011;44470;53.206;-6.106;2023-02-26T06:19:39;1.27;;;0.30;;
58689;SDS011;44470;53.206;-6.106;2023-02-26T06:22:04;2.50;;;0.50;;
58689;SDS011;44470;53.206;-6.106;2023-02-26T06:24:30;1.05;;;0.50;;
58689;SDS011;44470;53.206;-6.106;2023-02-26T06:26:55;0.50;;;0.22;;
58689;SDS011;44470;53.206;-6.106;2023-02-26T06:29:21;1.48;;;0.43;;
58689;SDS011;44470;53.206;-6.106;2023-02-26T06:31:47;1.38;;;0.50;;
58689;SDS011;44470;53.206;-6.106;2023-02-26T06:34:13;0.40;;;0.40;;
58689;SDS011;44470;53.206;-6.106;2023-02-26T06:36:38;1.55;;;0.60;;
58689;SDS011;44470;53.206;-6.106;2023-02-26T06:39:04;0.93;;;0.52;;
58689;SDS011;44470;53.206;-6.106;2023-02-26T06:41:30;0.90;;;0.65;;
58689;SDS011;44470;53.206;-6.106;2023-02-26T06:43:55;0.47;;;0.35;;
58689;SDS011;44470;53.206;-6.106;2023-02-26T06:46:21;0.50;;;0.20;;
58689;SDS011;44470;53.206;-6.106;2023-02-26T06:48:46;1.13;;;0.32;;
58689;SDS011;44470;53.206;-6.106;2023-02-26T06:51:12;1.85;;;0.60;;
58689;SDS011;44470;53.206;-6.106;2023-02-26T06:53:37;1.60;;;0.55;;
58689;SDS011;44470;53.206;-6.106;2023-02-26T06:56:03;1.83;;;0.60;;
58689;SDS011;44470;53.206;-6.106;2023-02-26T06:58:29;0.47;;;0.28;;
58689;SDS011;44470;53.206;-6.106;2023-02-26T07:00:55;1.02;;;0.40;;
58689;SDS011;44470;53.206;-6.106;2023-02-26T07:03:20;1.88;;;0.40;;
58689;SDS011;44470;53.206;-6.106;2023-02-26T07:05:46;1.52;;;0.60;;
58689;SDS011;44470;53.206;-6.106;2023-02-26T07:08:11;0.50;;;0.40;;
58689;SDS011;44470;53.206;-6.106;2023-02-26T07:10:38;1.25;;;0.30;;
58689;SDS011;44470;53.206;-6.106;2023-02-26T07:13:04;1.75;;;0.85;;
58689;SDS011;44470;53.206;-6.106;2023-02-26T07:15:30;3.58;;;0.90;;
58689;SDS011;44470;53.206;-6.106;2023-02-26T07:17:55;5.65;;;0.82;;
58689;SDS011;44470;53.206;-6.106;2023-02-26T07:20:21;1.67;;;0.40;;
58689;SDS011;44470;53.206;-6.106;2023-02-26T07:22:47;0.40;;;0.30;;
58689;SDS011;44470;53.206;-6.106;2023-02-26T07:25:12;1.35;;;0.57;;
58689;SDS011;44470;53.206;-6.106;2023-02-26T07:27:38;1.13;;;0.70;;
58689;SDS011;44470;53.206;-6.106;2023-02-26T07:30:04;2.97;;;0.40;;
58689;SDS011;44470;53.206;-6.106;2023-02-26T07:32:31;0.75;;;0.32;;
58689;SDS011;44470;53.206;-6.106;2023-02-26T07:34:57;0.82;;;0.38;;
58689;SDS011;44470;53.206;-6.106;2023-02-26T07:37:22;1.38;;;0.38;;
58689;SDS011;44470;53.206;-6.106;2023-02-26T07:39:49;2.53;;;0.68;;
58689;SDS011;44470;53.206;-6.106;2023-02-26T07:42:14;0.55;;;0.38;;
58689;SDS011;44470;53.206;-6.106;2023-02-26T07:44:40;1.05;;;0.43;;
58689;SDS011;44470;53.206;-6.106;2023-02-26T07:47:06;2.08;;;0.43;;
58689;SDS011;44470;53.206;-6.106;2023-02-26T07:49:32;0.75;;;0.40;;
58689;SDS011;44470;53.206;-6.106;2023-02-26T07:51:58;0.93;;;0.52;;
58689;SDS011;44470;53.206;-6.106;2023-02-26T07:54:24;1.85;;;0.55;;
58689;SDS011;44470;53.206;-6.106;2023-02-26T07:56:49;0.98;;;0.25;;
58689;SDS011;44470;53.206;-6.106;2023-02-26T07:59:15;2.00;;;0.40;;
58689;SDS011;44470;53.206;-6.106;2023-02-26T08:01:41;0.82;;;0.35;;
58689;SDS011;44470;53.206;-6.106;2023-02-26T08:04:06;3.28;;;0.73;;
58689;SDS011;44470;53.206;-6.106;2023-02-26T08:06:32;1.55;;;0.40;;
58689;SDS011;44470;53.206;-6.106;2023-02-26T08:08:57;1.52;;;0.52;;
58689;SDS011;44470;53.206;-6.106;2023-02-26T08:11:23;0.77;;;0.57;;
58689;SDS011;44470;53.206;-6.106;2023-02-26T08:13:48;2.40;;;0.55;;
58689;SDS011;44470;53.206;-6.106;2023-02-26T08:16:14;0.75;;;0.50;;
58689;SDS011;44470;53.206;-6.106;2023-02-26T08:18:39;3.20;;;0.40;;
58689;SDS011;44470;53.206;-6.106;2023-02-26T08:21:05;0.60;;;0.38;;
58689;SDS011;44470;53.206;-6.106;2023-02-26T08:23:31;1.63;;;0.60;;
58689;SDS011;44470;53.206;-6.106;2023-02-26T08:26:03;1.23;;;0.40;;
58689;SDS011;44470;53.206;-6.106;2023-02-26T08:28:31;0.95;;;0.30;;
58689;SDS011;44470;53.206;-6.106;2023-02-26T08:30:57;1.30;;;0.60;;
58689;SDS011;44470;53.206;-6.106;2023-02-26T08:33:26;1.85;;;0.30;;
58689;SDS011;44470;53.206;-6.106;2023-02-26T08:35:52;0.85;;;0.45;;
58689;SDS011;44470;53.206;-6.106;2023-02-26T08:38:18;2.10;;;0.52;;
58689;SDS011;44470;53.206;-6.106;2023-02-26T08:40:44;1.95;;;0.50;;
58689;SDS011;44470;53.206;-6.106;2023-02-26T08:43:13;0.52;;;0.50;;
58689;SDS011;44470;53.206;-6.106;2023-02-26T08:45:39;1.80;;;0.65;;
58689;SDS011;44470;53.206;-6.106;2023-02-26T08:48:04;1.00;;;0.40;;
58689;SDS011;44470;53.206;-6.106;2023-02-26T08:50:30;1.23;;;0.50;;
58689;SDS011;44470;53.206;-6.106;2023-02-26T08:52:56;1.10;;;0.40;;
58689;SDS011;44470;53.206;-6.106;2023-02-26T08:55:21;1.50;;;0.45;;
58689;SDS011;44470;53.206;-6.106;2023-02-26T08:57:47;0.55;;;0.30;;
58689;SDS011;44470;53.206;-6.106;2023-02-26T09:00:13;0.93;;;0.30;;
58689;SDS011;44470;53.206;-6.106;2023-02-26T09:02:42;1.02;;;0.50;;
58689;SDS011;44470;53.206;-6.106;2023-02-26T09:05:09;0.70;;;0.70;;
58689;SDS011;44470;53.206;-6.106;2023-02-26T09:07:36;1.55;;;0.55;;
58689;SDS011;44470;53.206;-6.106;2023-02-26T09:10:01;0.50;;;0.32;;
58689;SDS011;44470;53.206;-6.106;2023-02-26T09:12:27;1.13;;;0.60;;
58689;SDS011;44470;53.206;-6.106;2023-02-26T09:14:52;2.42;;;0.57;;
58689;SDS011;44470;53.206;-6.106;2023-02-26T09:17:18;2.45;;;0.68;;
58689;SDS011;44470;53.206;-6.106;2023-02-26T09:19:44;2.22;;;0.40;;
58689;SDS011;44470;53.206;-6.106;2023-02-26T09:22:09;1.92;;;0.57;;
58689;SDS011;44470;53.206;-6.106;2023-02-26T09:24:34;0.80;;;0.25;;
58689;SDS011;44470;53.206;-6.106;2023-02-26T09:27:00;0.38;;;0.38;;
58689;SDS011;44470;53.206;-6.106;2023-02-26T09:29:27;0.70;;;0.50;;
58689;SDS011;44470;53.206;-6.106;2023-02-26T09:31:53;0.93;;;0.40;;
58689;SDS011;44470;53.206;-6.106;2023-02-26T09:34:19;1.17;;;0.50;;
58689;SDS011;44470;53.206;-6.106;2023-02-26T09:36:44;0.45;;;0.40;;
58689;SDS011;44470;53.206;-6.106;2023-02-26T09:39:11;1.05;;;0.60;;
58689;SDS011;44470;53.206;-6.106;2023-02-26T09:41:40;1.25;;;0.28;;
58689;SDS011;44470;53.206;-6.106;2023-02-26T09:44:18;2.05;;;0.45;;
58689;SDS011;44470;53.206;-6.106;2023-02-26T09:47:01;1.23;;;0.57;;
58689;SDS011;44470;53.206;-6.106;2023-02-26T09:52:23;3.47;;;0.88;;
58689;SDS011;44470;53.206;-6.106;2023-02-26T09:57:49;6.70;;;0.82;;
58689;SDS011;44470;53.206;-6.106;2023-02-26T10:00:22;10.70;;;1.23;;
58689;SDS011;44470;53.206;-6.106;2023-02-26T10:08:27;5.60;;;0.95;;
58689;SDS011;44470;53.206;-6.106;2023-02-26T10:13:53;6.32;;;0.90;;
58689;SDS011;44470;53.206;-6.106;2023-02-26T10:16:27;8.38;;;1.00;;
58689;SDS011;44470;53.206;-6.106;2023-02-26T10:19:02;7.70;;;0.90;;
58689;SDS011;44470;53.206;-6.106;2023-02-26T10:21:51;6.47;;;1.15;;
58689;SDS011;44470;53.206;-6.106;2023-02-26T10:24:25;8.80;;;1.60;;
58689;SDS011;44470;53.206;-6.106;2023-02-26T10:27:06;4.43;;;1.10;;
58689;SDS011;44470;53.206;-6.106;2023-02-26T10:35:11;8.48;;;1.05;;
58689;SDS011;44470;53.206;-6.106;2023-02-26T10:45:46;10.95;;;1.33;;
58689;SDS011;44470;53.206;-6.106;2023-02-26T10:51:37;6.50;;;1.75;;
58689;SDS011;44470;53.206;-6.106;2023-02-26T10:54:14;7.32;;;1.23;;
58689;SDS011;44470;53.206;-6.106;2023-02-26T10:56:44;7.38;;;1.08;;
58689;SDS011;44470;53.206;-6.106;2023-02-26T10:59:10;6.75;;;1.20;;
58689;SDS011;44470;53.206;-6.106;2023-02-26T11:01:36;8.35;;;1.17;;
58689;SDS011;44470;53.206;-6.106;2023-02-26T11:04:10;11.15;;;1.20;;
58689;SDS011;44470;53.206;-6.106;2023-02-26T11:06:42;6.95;;;1.10;;
58689;SDS011;44470;53.206;-6.106;2023-02-26T11:09:33;9.43;;;1.42;;
58689;SDS011;44470;53.206;-6.106;2023-02-26T11:14:37;9.98;;;1.40;;
58689;SDS011;44470;53.206;-6.106;2023-02-26T11:17:03;6.13;;;1.10;;
58689;SDS011;44470;53.206;-6.106;2023-02-26T11:19:37;8.18;;;1.60;;
58689;SDS011;44470;53.206;-6.106;2023-02-26T11:22:05;8.88;;;2.05;;
58689;SDS011;44470;53.206;-6.106;2023-02-26T11:24:39;7.82;;;1.33;;
58689;SDS011;44470;53.206;-6.106;2023-02-26T11:27:19;4.22;;;1.13;;
58689;SDS011;44470;53.206;-6.106;2023-02-26T11:29:52;8.40;;;1.65;;
58689;SDS011;44470;53.206;-6.106;2023-02-26T11:32:21;5.38;;;1.35;;
58689;SDS011;44470;53.206;-6.106;2023-02-26T11:34:49;32.25;;;2.88;;
58689;SDS011;44470;53.206;-6.106;2023-02-26T11:37:20;25.73;;;2.50;;
58689;SDS011;44470;53.206;-6.106;2023-02-26T11:39:54;24.88;;;2.50;;
58689;SDS011;44470;53.206;-6.106;2023-02-26T11:42:29;17.90;;;2.05;;
58689;SDS011;44470;53.206;-6.106;2023-02-26T11:44:59;14.27;;;2.08;;
58689;SDS011;44470;53.206;-6.106;2023-02-26T11:47:26;12.63;;;1.95;;
58689;SDS011;44470;53.206;-6.106;2023-02-26T11:52:29;20.20;;;2.30;;
58689;SDS011;44470;53.206;-6.106;2023-02-26T11:55:00;27.23;;;2.78;;
58689;SDS011;44470;53.206;-6.106;2023-02-26T11:57:27;25.67;;;2.47;;
58689;SDS011;44470;53.206;-6.106;2023-02-26T11:59:55;28.40;;;3.20;;
58689;SDS011;44470;53.206;-6.106;2023-02-26T12:02:24;110.80;;;6.83;;
58689;SDS011;44470;53.206;-6.106;2023-02-26T12:04:54;65.43;;;5.18;;
58689;SDS011;44470;53.206;-6.106;2023-02-26T12:07:24;65.22;;;5.63;;
58689;SDS011;44470;53.206;-6.106;2023-02-26T12:09:50;44.97;;;4.40;;
58689;SDS011;44470;53.206;-6.106;2023-02-26T12:17:53;29.20;;;3.88;;
58689;SDS011;44470;53.206;-6.106;2023-02-26T12:20:39;71.05;;;5.60;;
58689;SDS011;44470;53.206;-6.106;2023-02-26T12:39:44;205.60;;;12.40;;
58689;SDS011;44470;53.206;-6.106;2023-02-26T12:48:48;144.95;;;9.80;;
58689;SDS011;44470;53.206;-6.106;2023-02-26T12:51:28;138.93;;;9.50;;
58689;SDS011;44470;53.206;-6.106;2023-02-26T13:21:40;165.15;;;12.25;;
58689;SDS011;44470;53.206;-6.106;2023-02-26T13:24:13;124.20;;;8.93;;
58689;SDS011;44470;53.206;-6.106;2023-02-26T13:26:49;125.97;;;9.75;;
58689;SDS011;44470;53.206;-6.106;2023-02-26T13:29:28;116.20;;;10.02;;
58689;SDS011;44470;53.206;-6.106;2023-02-26T13:34:02;248.00;;;15.68;;
58689;SDS011;44470;53.206;-6.106;2023-02-26T13:36:31;291.77;;;16.92;;
58689;SDS011;44470;53.206;-6.106;2023-02-26T13:44:47;301.17;;;18.92;;
58689;SDS011;44470;53.206;-6.106;2023-02-26T13:47:20;241.27;;;16.17;;
58689;SDS011;44470;53.206;-6.106;2023-02-26T13:50:51;179.50;;;13.63;;
58689;SDS011;44470;53.206;-6.106;2023-02-26T13:52:51;211.88;;;14.45;;
58689;SDS011;44470;53.206;-6.106;2023-02-26T13:55:35;237.98;;;15.80;;
58689;SDS011;44470;53.206;-6.106;2023-02-26T14:06:44;168.82;;;11.98;;
58689;SDS011;44470;53.206;-6.106;2023-02-26T14:24:52;228.13;;;14.30;;
58689;SDS011;44470;53.206;-6.106;2023-02-26T14:27:44;303.42;;;18.23;;
58689;SDS011;44470;53.206;-6.106;2023-02-26T14:35:22;190.65;;;14.32;;
58689;SDS011;44470;53.206;-6.106;2023-02-26T14:40:46;154.18;;;11.55;;
58689;SDS011;44470;53.206;-6.106;2023-02-26T14:43:20;134.35;;;10.95;;
58689;SDS011;44470;53.206;-6.106;2023-02-26T14:45:55;136.13;;;10.27;;
